Time;durP1;ratioP1;P1;durP2;ratioP2;P2;SDS_P1;SDS_P2;PMS_P1;PMS_P2;Temp;Humidity;BMP_temperature;BMP_pressure;BME280_temperature;BME280_humidity;BME280_pressure;Samples;Min_cycle;Max_cycle;Signal;HPM_P1;HPM_P2
2023/02/17 00:02:00;;;;;;;5.68;3.63;;;9.00;1.00;;;;;;7364236;19;20022;-67
2023/02/17 00:04:29;;;;;;;7.32;3.78;;;9.00;1.00;;;;;;7364724;19;20034;-68
2023/02/17 00:06:59;;;;;;;5.80;4.22;;;9.00;1.00;;;;;;7364657;19;20478;-67
2023/02/17 00:09:29;;;;;;;8.18;4.03;;;8.90;1.00;;;;;;7388498;19;20015;-68
2023/02/17 00:11:59;;;;;;;7.15;3.88;;;8.90;1.00;;;;;;7363305;19;20475;-68
2023/02/17 00:14:29;;;;;;;6.38;4.28;;;9.00;1.00;;;;;;7363760;19;20007;-68
2023/02/17 00:17:01;;;;;;;7.20;4.28;;;9.00;1.00;;;;;;7365138;19;20014;-68
2023/02/17 00:19:31;;;;;;;6.00;4.53;;;9.00;1.00;;;;;;7367123;19;20010;-68
2023/02/17 00:22:02;;;;;;;8.27;4.10;;;9.00;1.00;;;;;;7363113;19;20014;-68
2023/02/17 00:24:34;;;;;;;9.43;4.20;;;9.00;1.00;;;;;;7385910;19;20328;-68
2023/02/17 00:27:04;;;;;;;6.80;4.05;;;9.00;1.00;;;;;;7363741;19;20006;-68
2023/02/17 00:29:34;;;;;;;5.90;4.15;;;9.00;1.00;;;;;;7364107;19;20006;-68
2023/02/17 00:32:09;;;;;;;8.23;4.18;;;9.00;1.00;;;;;;7364309;19;20432;-68
2023/02/17 00:34:39;;;;;;;7.72;4.07;;;9.00;1.00;;;;;;7363950;19;20109;-68
2023/02/17 00:37:09;;;;;;;7.18;4.18;;;9.00;1.00;;;;;;7363550;19;20553;-68
2023/02/17 00:39:38;;;;;;;6.22;4.63;;;9.20;1.00;;;;;;7366085;19;20026;-67
2023/02/17 00:42:08;;;;;;;6.53;4.15;;;9.20;1.00;;;;;;7383526;19;20006;-68
2023/02/17 00:44:38;;;;;;;7.32;3.95;;;9.10;1.00;;;;;;7362759;19;20010;-68
2023/02/17 00:47:10;;;;;;;5.88;3.80;;;9.20;1.00;;;;;;7364828;19;20022;-68
2023/02/17 00:49:40;;;;;;;7.07;4.03;;;9.10;1.00;;;;;;7364601;19;20010;-67
2023/02/17 00:52:10;;;;;;;6.53;4.05;;;9.10;1.00;;;;;;7363556;19;20021;-67
2023/02/17 00:54:40;;;;;;;8.10;4.28;;;9.20;1.00;;;;;;7366496;19;20021;-68
2023/02/17 00:57:13;;;;;;;9.18;3.92;;;9.10;1.00;;;;;;7385546;19;20043;-67
2023/02/17 00:59:42;;;;;;;8.02;4.03;;;9.10;1.00;;;;;;7361159;19;20044;-68
2023/02/17 01:02:15;;;;;;;7.05;3.75;;;9.10;1.00;;;;;;7361567;19;20019;-68
2023/02/17 01:04:44;;;;;;;8.43;3.78;;;9.20;1.00;;;;;;7363115;19;20010;-67
2023/02/17 01:07:14;;;;;;;8.85;4.05;;;9.30;1.00;;;;;;7362270;19;20007;-68
2023/02/17 01:09:44;;;;;;;8.48;4.55;;;9.20;1.00;;;;;;7364111;19;20492;-68
2023/02/17 01:12:14;;;;;;;6.60;3.60;;;9.20;1.00;;;;;;7386951;19;20015;-68
2023/02/17 01:14:44;;;;;;;7.70;3.85;;;9.30;1.00;;;;;;7364633;19;20018;-67
2023/02/17 01:17:17;;;;;;;7.18;4.22;;;9.20;1.00;;;;;;7363754;19;20010;-68
2023/02/17 01:19:46;;;;;;;5.82;3.92;;;9.20;1.00;;;;;;7363751;19;20014;-68
2023/02/17 01:22:16;;;;;;;6.85;3.83;;;9.10;1.00;;;;;;7361406;19;20643;-68
2023/02/17 01:24:46;;;;;;;7.88;3.72;;;9.00;1.00;;;;;;7361806;19;20022;-68
2023/02/17 01:27:16;;;;;;;10.80;4.20;;;9.00;1.00;;;;;;7384091;19;20014;-67
2023/02/17 01:29:46;;;;;;;8.40;4.07;;;8.90;1.00;;;;;;7362123;19;20013;-68
2023/02/17 01:32:18;;;;;;;11.30;4.22;;;8.80;1.00;;;;;;7361403;19;20660;-68
2023/02/17 01:34:49;;;;;;;7.88;4.00;;;9.00;1.00;;;;;;7361949;19;20549;-67
2023/02/17 01:37:18;;;;;;;10.55;4.00;;;9.00;1.00;;;;;;7361486;19;20011;-67
2023/02/17 01:39:48;;;;;;;7.53;3.88;;;8.90;1.00;;;;;;7364001;19;20018;-68
2023/02/17 01:42:19;;;;;;;5.65;3.85;;;8.90;1.00;;;;;;7381831;19;20017;-68
2023/02/17 01:45:19;;;;;;;11.27;4.90;;;9.00;1.00;;;;;;7362922;19;20010;-68
2023/02/17 01:47:55;;;;;;;6.13;3.70;;;8.90;1.00;;;;;;7362503;19;20031;-68
2023/02/17 01:50:29;;;;;;;8.38;4.32;;;8.90;1.00;;;;;;7362619;19;20017;-67
2023/02/17 01:53:01;;;;;;;7.88;3.92;;;9.00;1.00;;;;;;7364438;19;20678;-68
2023/02/17 01:55:32;;;;;;;6.00;3.70;;;9.00;1.00;;;;;;7363449;19;20013;-68
2023/02/17 01:58:05;;;;;;;5.25;3.80;;;9.00;1.00;;;;;;7360567;19;20010;-68
2023/02/17 02:00:37;;;;;;;6.75;3.58;;;8.90;1.00;;;;;;7384464;19;20518;-68
2023/02/17 02:03:14;;;;;;;7.70;3.60;;;9.00;1.00;;;;;;7362798;19;20563;-68
2023/02/17 02:05:44;;;;;;;6.28;3.85;;;9.00;1.00;;;;;;7364258;19;20568;-68
2023/02/17 02:08:15;;;;;;;5.10;3.50;;;9.00;1.00;;;;;;7362192;19;20481;-68
2023/02/17 02:10:45;;;;;;;5.75;3.38;;;9.10;1.00;;;;;;7362723;19;20010;-68
2023/02/17 02:13:15;;;;;;;6.30;3.50;;;9.10;1.00;;;;;;7363639;19;20013;-68
2023/02/17 02:15:54;;;;;;;6.80;3.72;;;9.00;1.00;;;;;;7360528;19;20025;-68
2023/02/17 02:18:38;;;;;;;7.25;3.35;;;9.00;1.00;;;;;;7382267;19;20029;-68
2023/02/17 02:21:38;;;;;;;6.72;3.70;;;8.90;1.00;;;;;;7358384;19;20704;-68
2023/02/17 02:24:24;;;;;;;6.13;3.65;;;9.00;1.00;;;;;;7361880;19;20017;-68
2023/02/17 02:27:30;;;;;;;5.22;3.60;;;8.90;1.00;;;;;;7359891;19;20011;-69
2023/02/17 02:30:20;;;;;;;10.05;3.60;;;9.00;1.00;;;;;;7362118;19;20023;-68
2023/02/17 02:33:04;;;;;;;5.63;3.50;;;8.90;1.00;;;;;;7359432;19;20031;-68
2023/02/17 02:35:42;;;;;;;7.57;3.67;;;9.00;1.00;;;;;;7357433;19;20025;-68
2023/02/17 02:38:16;;;;;;;9.18;3.92;;;8.90;1.00;;;;;;7359641;19;20085;-68
2023/02/17 02:40:51;;;;;;;5.57;3.67;;;8.90;1.00;;;;;;7363018;19;20139;-68
2023/02/17 02:43:21;;;;;;;7.32;3.50;;;8.90;1.00;;;;;;7359848;19;20034;-68
2023/02/17 02:45:51;;;;;;;6.68;3.42;;;8.90;1.00;;;;;;7358858;19;20029;-67
2023/02/17 02:48:23;;;;;;;11.73;4.47;;;8.90;1.00;;;;;;7383840;19;20031;-68
2023/02/17 02:51:16;;;;;;;7.78;4.03;;;8.80;1.00;;;;;;7358771;19;20431;-68
2023/02/17 02:54:02;;;;;;;9.52;4.15;;;8.80;1.00;;;;;;7361305;19;20022;-67
2023/02/17 02:56:49;;;;;;;6.10;3.42;;;8.80;1.00;;;;;;7358016;19;20010;-68
2023/02/17 02:59:30;;;;;;;7.95;3.83;;;8.80;1.00;;;;;;7360314;19;20477;-68
2023/02/17 03:02:10;;;;;;;7.80;3.95;;;8.80;1.00;;;;;;7358871;19;20345;-68
2023/02/17 03:04:52;;;;;;;4.55;3.25;;;8.80;1.00;;;;;;7361445;19;20011;-67
2023/02/17 03:07:26;;;;;;;5.82;3.30;;;8.80;1.00;;;;;;7359468;19;20025;-68
2023/02/17 03:09:59;;;;;;;8.82;3.88;;;8.70;1.00;;;;;;7359609;19;20470;-68
2023/02/17 03:12:30;;;;;;;6.82;3.42;;;8.80;1.00;;;;;;7382509;19;20015;-68
2023/02/17 03:15:04;;;;;;;9.05;3.88;;;8.80;1.00;;;;;;7358422;19;20730;-68
2023/02/17 03:17:34;;;;;;;7.05;3.53;;;8.80;1.00;;;;;;7362662;19;20119;-67
2023/02/17 03:20:09;;;;;;;5.22;3.35;;;8.80;1.00;;;;;;7359199;19;20007;-67
2023/02/17 03:22:42;;;;;;;6.22;3.80;;;8.80;1.00;;;;;;7361380;19;20025;-67
2023/02/17 03:25:12;;;;;;;5.60;3.60;;;8.80;1.00;;;;;;7380687;19;20389;-67
2023/02/17 03:27:42;;;;;;;8.38;3.40;;;8.80;1.00;;;;;;7359793;19;20010;-67
2023/02/17 03:30:13;;;;;;;6.10;3.80;;;8.90;1.00;;;;;;7357750;19;20046;-68
2023/02/17 03:32:43;;;;;;;7.20;4.22;;;8.90;1.00;;;;;;7362189;19;20106;-67
2023/02/17 03:35:16;;;;;;;8.05;3.60;;;8.90;1.00;;;;;;7368294;19;20038;-67
2023/02/17 03:37:46;;;;;;;9.43;3.70;;;8.80;1.00;;;;;;7368113;19;20025;-67
2023/02/17 03:40:16;;;;;;;7.13;3.55;;;8.90;1.00;;;;;;7383113;19;20013;-67
2023/02/17 03:42:46;;;;;;;8.30;3.80;;;8.90;1.00;;;;;;7386155;19;20014;-68
2023/02/17 03:45:16;;;;;;;8.20;4.20;;;8.90;1.00;;;;;;7364583;19;20135;-67
2023/02/17 03:47:45;;;;;;;5.82;3.50;;;8.90;1.00;;;;;;7366305;19;20018;-68
2023/02/17 03:50:18;;;;;;;7.55;4.13;;;8.90;1.00;;;;;;7364891;19;20010;-68
2023/02/17 03:52:48;;;;;;;4.53;3.20;;;9.10;1.00;;;;;;7365420;19;20021;-68
2023/02/17 03:55:18;;;;;;;7.85;3.83;;;9.20;1.00;;;;;;7367305;19;20356;-69
2023/02/17 03:57:47;;;;;;;7.28;3.70;;;9.10;1.00;;;;;;7386048;19;20493;-68
2023/02/17 04:00:18;;;;;;;5.53;3.33;;;9.20;1.00;;;;;;7363030;19;20006;-68
2023/02/17 04:02:48;;;;;;;6.63;3.33;;;9.20;1.00;;;;;;7365756;19;20021;-68
2023/02/17 04:05:20;;;;;;;7.35;3.45;;;9.40;1.00;;;;;;7366218;19;20011;-68
2023/02/17 04:07:50;;;;;;;5.45;3.10;;;9.30;1.00;;;;;;7365169;19;20049;-67
2023/02/17 04:10:20;;;;;;;7.63;3.63;;;9.30;1.00;;;;;;7365573;19;20358;-67
2023/02/17 04:12:50;;;;;;;4.68;3.30;;;9.40;1.00;;;;;;7385349;19;20014;-67
2023/02/17 04:15:20;;;;;;;7.45;3.75;;;9.40;1.00;;;;;;7364207;19;20011;-67
2023/02/17 04:17:50;;;;;;;6.45;3.40;;;9.50;1.00;;;;;;7364844;19;20098;-66
2023/02/17 04:20:22;;;;;;;8.38;4.18;;;9.50;1.00;;;;;;7364082;19;20011;-67
2023/02/17 04:22:52;;;;;;;5.88;3.42;;;9.40;1.00;;;;;;7364087;19;20021;-67
2023/02/17 04:25:22;;;;;;;7.25;3.65;;;9.40;1.00;;;;;;7363700;19;20022;-68
2023/02/17 04:27:52;;;;;;;7.30;3.58;;;9.40;1.00;;;;;;7385669;19;20014;-68
2023/02/17 04:30:22;;;;;;;5.93;3.58;;;9.50;1.00;;;;;;7360551;19;20489;-68
2023/02/17 04:32:51;;;;;;;6.80;3.40;;;9.40;1.00;;;;;;7366256;19;20107;-68
2023/02/17 04:35:24;;;;;;;7.93;3.53;;;9.40;1.00;;;;;;7364245;19;20029;-66
2023/02/17 04:37:55;;;;;;;7.15;3.45;;;9.50;1.00;;;;;;7363931;19;20079;-66
2023/02/17 04:40:25;;;;;;;6.25;3.67;;;9.50;1.00;;;;;;7364350;19;20011;-66
2023/02/17 04:42:55;;;;;;;9.05;3.53;;;9.40;1.00;;;;;;7385186;19;20034;-66
2023/02/17 04:45:25;;;;;;;5.35;3.50;;;9.40;1.00;;;;;;7361317;19;20015;-67
2023/02/17 04:47:54;;;;;;;8.38;3.20;;;9.40;1.00;;;;;;7363369;19;20014;-68
2023/02/17 04:50:27;;;;;;;5.50;3.10;;;9.40;1.00;;;;;;7363508;19;20502;-68
2023/02/17 04:52:57;;;;;;;4.80;3.40;;;9.30;1.00;;;;;;7363179;19;20101;-66
2023/02/17 04:55:28;;;;;;;6.00;3.38;;;9.40;1.00;;;;;;7362975;19;20536;-67
2023/02/17 04:57:58;;;;;;;5.40;3.38;;;9.30;1.00;;;;;;7384300;19;20470;-67
2023/02/17 05:00:28;;;;;;;5.40;3.30;;;9.30;1.00;;;;;;7363849;19;20512;-67
2023/02/17 05:02:57;;;;;;;4.85;3.03;;;9.40;1.00;;;;;;7362070;19;20014;-66
2023/02/17 05:05:30;;;;;;;7.40;3.28;;;9.40;1.00;;;;;;7362037;19;20019;-67
2023/02/17 05:08:00;;;;;;;8.15;3.70;;;9.40;1.00;;;;;;7363180;19;20018;-67
2023/02/17 05:10:30;;;;;;;7.57;3.30;;;9.40;1.00;;;;;;7363097;19;20019;-67
2023/02/17 05:12:59;;;;;;;4.10;3.05;;;9.40;1.00;;;;;;7383353;19;20022;-68
2023/02/17 05:15:29;;;;;;;5.57;2.97;;;9.40;1.00;;;;;;7362044;19;20475;-65
2023/02/17 05:18:01;;;;;;;5.72;3.13;;;9.40;1.00;;;;;;7361427;19;20006;-67
2023/02/17 05:20:34;;;;;;;5.47;3.33;;;9.40;1.00;;;;;;7361863;19;20011;-67
2023/02/17 05:23:03;;;;;;;7.32;3.00;;;9.50;1.00;;;;;;7361622;19;20014;-67
2023/02/17 05:25:33;;;;;;;8.10;3.63;;;9.50;1.00;;;;;;7360382;19;20054;-67
2023/02/17 05:28:03;;;;;;;6.70;3.65;;;9.50;1.00;;;;;;7383353;19;20394;-69
2023/02/17 05:30:33;;;;;;;5.70;3.38;;;9.50;1.00;;;;;;7362699;19;20015;-67
2023/02/17 05:33:03;;;;;;;6.55;3.30;;;9.50;1.00;;;;;;7361239;19;20053;-66
2023/02/17 05:35:36;;;;;;;4.93;3.40;;;9.50;1.00;;;;;;7362068;19;20014;-67
2023/02/17 05:38:05;;;;;;;7.60;3.45;;;9.50;1.00;;;;;;7361890;19;20022;-67
2023/02/17 05:40:35;;;;;;;7.65;3.42;;;9.50;1.00;;;;;;7362501;19;20419;-67
2023/02/17 05:43:05;;;;;;;6.55;3.33;;;9.50;1.00;;;;;;7382237;19;20018;-68
2023/02/17 05:45:35;;;;;;;6.13;3.70;;;9.40;1.00;;;;;;7359162;19;20011;-68
2023/02/17 05:48:05;;;;;;;4.90;3.38;;;9.40;1.00;;;;;;7361393;19;20007;-68
2023/02/17 05:50:37;;;;;;;6.95;3.10;;;9.40;1.00;;;;;;7361534;19;20014;-67
2023/02/17 05:53:07;;;;;;;6.47;3.60;;;9.30;1.00;;;;;;7362080;19;20011;-67
2023/02/17 05:55:37;;;;;;;6.93;3.35;;;9.30;1.00;;;;;;7360826;19;20023;-68
2023/02/17 05:58:06;;;;;;;5.43;3.47;;;9.30;1.00;;;;;;7385595;19;20014;-68
2023/02/17 06:00:36;;;;;;;8.40;3.53;;;9.30;1.00;;;;;;7353645;19;20017;-68
2023/02/17 06:03:06;;;;;;;6.43;3.58;;;9.40;1.00;;;;;;7361833;19;20014;-68
2023/02/17 06:05:38;;;;;;;7.38;3.53;;;9.40;1.00;;;;;;7360549;19;20372;-67
2023/02/17 06:08:09;;;;;;;6.40;3.40;;;9.40;1.00;;;;;;7360874;19;20010;-68
2023/02/17 06:10:38;;;;;;;8.95;3.63;;;9.40;1.00;;;;;;7361209;19;20019;-68
2023/02/17 06:13:08;;;;;;;4.57;3.30;;;9.40;1.00;;;;;;7381495;19;20671;-68
2023/02/17 06:15:38;;;;;;;6.68;3.38;;;9.40;1.00;;;;;;7360132;19;20025;-66
2023/02/17 06:18:08;;;;;;;8.65;3.65;;;9.50;1.00;;;;;;7359967;19;20018;-67
2023/02/17 06:20:40;;;;;;;7.15;3.78;;;9.50;1.00;;;;;;7359218;19;20018;-68
2023/02/17 06:23:10;;;;;;;6.93;3.60;;;9.60;1.00;;;;;;7359305;19;20018;-68
2023/02/17 06:25:40;;;;;;;5.47;3.42;;;9.60;1.00;;;;;;7359696;19;20010;-68
2023/02/17 06:28:10;;;;;;;8.65;3.95;;;9.60;1.00;;;;;;7380707;19;20007;-68
2023/02/17 06:30:40;;;;;;;6.40;3.55;;;9.60;1.00;;;;;;7361356;19;20039;-67
2023/02/17 06:33:09;;;;;;;5.75;3.92;;;9.60;1.00;;;;;;7359634;19;20011;-67
2023/02/17 06:35:43;;;;;;;7.35;4.13;;;9.60;1.00;;;;;;7359411;19;20059;-68
2023/02/17 06:38:13;;;;;;;7.57;3.40;;;9.60;1.00;;;;;;7358881;19;20526;-68
2023/02/17 06:40:42;;;;;;;5.38;3.63;;;9.60;1.00;;;;;;7360443;19;20028;-68
2023/02/17 06:43:12;;;;;;;6.03;4.13;;;9.60;1.00;;;;;;7380739;19;20052;-66
2023/02/17 06:45:42;;;;;;;8.40;4.03;;;9.60;1.00;;;;;;7357476;19;20010;-68
2023/02/17 06:48:12;;;;;;;7.68;3.95;;;9.60;1.00;;;;;;7358514;19;20010;-68
2023/02/17 06:50:44;;;;;;;6.22;3.70;;;9.60;1.00;;;;;;7359110;19;20007;-68
2023/02/17 06:53:14;;;;;;;8.75;4.00;;;9.60;1.00;;;;;;7361688;19;20034;-66
2023/02/17 06:55:45;;;;;;;6.00;3.80;;;9.60;1.00;;;;;;7358692;19;20019;-68
2023/02/17 06:58:15;;;;;;;9.32;3.97;;;9.60;1.00;;;;;;7379750;19;20032;-67
2023/02/17 07:00:45;;;;;;;5.60;3.90;;;9.50;1.00;;;;;;7360538;19;20007;-68
2023/02/17 07:03:14;;;;;;;7.05;3.55;;;9.60;1.00;;;;;;7358570;19;20020;-67
2023/02/17 07:05:47;;;;;;;6.72;4.10;;;9.60;1.00;;;;;;7357721;19;20022;-68
2023/02/17 07:08:17;;;;;;;6.05;4.35;;;9.60;1.00;;;;;;7361827;19;20011;-68
2023/02/17 07:10:46;;;;;;;7.57;4.13;;;9.60;1.00;;;;;;7366018;19;20033;-68
2023/02/17 07:13:16;;;;;;;6.00;4.28;;;9.60;1.00;;;;;;7382456;19;20038;-69
2023/02/17 07:15:46;;;;;;;5.40;4.00;;;9.60;1.00;;;;;;7386468;19;20482;-67
2023/02/17 07:18:16;;;;;;;7.03;4.05;;;9.60;1.00;;;;;;7365806;19;20283;-68
2023/02/17 07:20:48;;;;;;;6.20;3.80;;;9.70;1.00;;;;;;7364141;19;20006;-67
2023/02/17 07:23:18;;;;;;;10.63;4.32;;;9.70;1.00;;;;;;7365437;19;20462;-67
2023/02/17 07:25:48;;;;;;;5.18;3.40;;;9.80;1.00;;;;;;7364398;19;20482;-68
2023/02/17 07:28:18;;;;;;;6.97;3.85;;;9.80;1.00;;;;;;7364606;19;20545;-67
2023/02/17 07:30:48;;;;;;;8.63;4.25;;;9.80;1.00;;;;;;7386914;19;20011;-68
2023/02/17 07:33:17;;;;;;;5.85;3.92;;;9.80;1.00;;;;;;7364823;19;20077;-68
2023/02/17 07:35:50;;;;;;;7.25;3.53;;;9.80;1.00;;;;;;7363558;19;20454;-68
2023/02/17 07:38:20;;;;;;;7.55;3.65;;;9.90;1.00;;;;;;7365035;19;20014;-67
2023/02/17 07:40:49;;;;;;;6.75;3.55;;;9.90;1.00;;;;;;7365095;19;20562;-68
2023/02/17 07:43:19;;;;;;;7.53;4.10;;;9.90;1.00;;;;;;7363737;19;20368;-67
2023/02/17 07:45:49;;;;;;;7.15;3.70;;;10.00;1.00;;;;;;7384183;19;20530;-67
2023/02/17 07:48:19;;;;;;;8.27;3.60;;;10.00;1.00;;;;;;7363646;19;20007;-68
2023/02/17 07:50:51;;;;;;;6.28;3.40;;;10.00;1.00;;;;;;7363038;19;20015;-67
2023/02/17 07:53:21;;;;;;;10.20;3.95;;;10.10;1.00;;;;;;7366182;19;20419;-67
2023/02/17 07:55:51;;;;;;;6.82;3.17;;;10.10;1.00;;;;;;7364067;19;20014;-67
2023/02/17 07:58:20;;;;;;;5.90;3.50;;;10.10;1.00;;;;;;7362882;19;20022;-67
2023/02/17 08:00:50;;;;;;;4.95;3.45;;;10.20;1.00;;;;;;7386006;19;20022;-67
2023/02/17 08:03:20;;;;;;;4.78;3.40;;;10.20;1.00;;;;;;7364153;19;20481;-67
2023/02/17 08:05:52;;;;;;;10.48;3.45;;;10.30;1.00;;;;;;7363337;19;20050;-68
2023/02/17 08:13:47;;;;;;;6.88;3.55;;;10.60;1.00;;;;;;7363148;19;20035;-67
2023/02/17 08:16:16;;;;;;;7.90;3.55;;;10.70;1.00;;;;;;7377499;19;20032;-68
2023/02/17 08:18:46;;;;;;;6.00;3.08;;;10.80;1.00;;;;;;7382322;19;20052;-68
2023/02/17 08:21:19;;;;;;;13.15;3.30;;;10.80;1.00;;;;;;7361978;19;20034;-68
2023/02/17 08:23:48;;;;;;;4.88;3.00;;;10.80;1.00;;;;;;7363072;19;20114;-67
2023/02/17 08:26:19;;;;;;;6.70;3.35;;;10.80;1.00;;;;;;7363621;19;20017;-67
2023/02/17 08:28:50;;;;;;;4.35;3.15;;;10.80;1.00;;;;;;7362219;19;20395;-66
2023/02/17 08:31:22;;;;;;;7.40;3.50;;;10.80;1.00;;;;;;7367772;19;20015;-67
2023/02/17 08:33:52;;;;;;;6.28;2.75;;;10.80;1.00;;;;;;7383860;19;20038;-68
2023/02/17 08:36:26;;;;;;;5.68;3.70;;;10.80;1.00;;;;;;7362345;19;20015;-67
2023/02/17 08:38:56;;;;;;;4.68;3.05;;;10.80;1.00;;;;;;7361007;19;20014;-68
2023/02/17 08:41:28;;;;;;;5.53;2.88;;;10.80;1.00;;;;;;7363573;19;20522;-68
2023/02/17 08:43:59;;;;;;;5.60;2.78;;;10.80;1.00;;;;;;7362373;19;20011;-67
2023/02/17 08:46:31;;;;;;;6.03;2.97;;;10.80;1.00;;;;;;7363593;19;20011;-67
2023/02/17 08:49:01;;;;;;;7.68;3.15;;;10.90;1.00;;;;;;7381540;19;20018;-67
2023/02/17 08:51:33;;;;;;;4.72;3.17;;;11.00;1.00;;;;;;7362266;19;20607;-68
2023/02/17 08:54:03;;;;;;;4.97;2.70;;;10.90;1.00;;;;;;7365152;19;20006;-67
2023/02/17 08:56:33;;;;;;;5.45;3.15;;;10.90;1.00;;;;;;7361990;19;20018;-66
2023/02/17 08:59:03;;;;;;;5.10;2.40;;;10.90;1.00;;;;;;7361115;19;20024;-68
2023/02/17 09:01:33;;;;;;;4.68;3.00;;;10.80;1.00;;;;;;7360843;19;20079;-66
2023/02/17 09:04:04;;;;;;;7.10;2.90;;;10.80;1.00;;;;;;7383064;19;20038;-67
2023/02/17 09:06:38;;;;;;;4.57;3.15;;;10.80;1.00;;;;;;7361029;19;20022;-67
2023/02/17 09:09:10;;;;;;;6.88;2.72;;;10.80;1.00;;;;;;7361938;19;20077;-67
2023/02/17 09:11:40;;;;;;;3.85;2.55;;;10.70;1.00;;;;;;7365040;19;20014;-67
2023/02/17 09:14:11;;;;;;;7.50;2.85;;;10.70;1.00;;;;;;7362632;19;20042;-68
2023/02/17 09:16:41;;;;;;;8.85;3.28;;;10.80;1.00;;;;;;7364012;19;20025;-68
2023/02/17 09:19:10;;;;;;;3.78;2.60;;;10.80;1.00;;;;;;7384758;19;20011;-68
2023/02/17 09:21:43;;;;;;;5.32;2.90;;;10.80;1.00;;;;;;7361767;19;20032;-67
2023/02/17 09:24:13;;;;;;;6.80;3.00;;;10.80;1.00;;;;;;7366744;19;20022;-68
2023/02/17 09:26:43;;;;;;;6.78;3.10;;;10.90;1.00;;;;;;7361148;19;20042;-67
2023/02/17 09:29:13;;;;;;;6.25;3.90;;;10.90;1.00;;;;;;7362366;19;20581;-67
2023/02/17 09:31:44;;;;;;;13.93;8.73;;;11.00;1.00;;;;;;7366001;19;20436;-67
2023/02/17 09:34:15;;;;;;;5.43;2.75;;;11.10;1.00;;;;;;7383772;19;20552;-68
2023/02/17 09:36:49;;;;;;;8.05;2.67;;;11.10;1.00;;;;;;7360992;19;20017;-68
2023/02/17 09:39:19;;;;;;;4.82;2.78;;;11.20;1.00;;;;;;7360687;19;20015;-67
2023/02/17 09:41:53;;;;;;;4.25;3.00;;;11.30;1.00;;;;;;7363396;19;20010;-68
2023/02/17 09:44:25;;;;;;;6.05;2.80;;;11.30;1.00;;;;;;7363461;19;20526;-68
2023/02/17 09:47:01;;;;;;;4.05;2.53;;;11.30;1.00;;;;;;7360979;19;20014;-68
2023/02/17 09:49:38;;;;;;;5.32;2.60;;;11.30;1.00;;;;;;7364087;19;20617;-67
2023/02/17 09:52:15;;;;;;;3.40;2.30;;;11.40;1.00;;;;;;7383366;19;20351;-67
2023/02/17 09:54:55;;;;;;;4.85;2.55;;;11.50;1.00;;;;;;7365819;19;20010;-68
2023/02/17 09:57:30;;;;;;;3.55;2.47;;;11.70;1.00;;;;;;7359783;19;20014;-66
2023/02/17 10:00:08;;;;;;;3.50;2.40;;;11.80;1.00;;;;;;7359990;19;20010;-67
2023/02/17 10:02:47;;;;;;;5.30;2.67;;;11.70;1.00;;;;;;7360933;19;20014;-68
2023/02/17 10:05:21;;;;;;;5.25;2.60;;;11.80;1.00;;;;;;7360788;19;20038;-67
2023/02/17 10:07:58;;;;;;;2.67;2.00;;;11.80;1.00;;;;;;7360218;19;20378;-69
2023/02/17 10:10:36;;;;;;;3.30;2.10;;;11.90;1.00;;;;;;7358444;19;20014;-67
2023/02/17 10:13:08;;;;;;;5.15;2.60;;;12.00;1.00;;;;;;7381274;19;20394;-68
2023/02/17 10:15:42;;;;;;;3.25;1.95;;;12.20;1.00;;;;;;7359015;19;20022;-67
2023/02/17 10:18:17;;;;;;;3.85;2.30;;;12.30;1.00;;;;;;7358501;19;20007;-68
2023/02/17 10:20:53;;;;;;;3.58;2.30;;;12.50;1.00;;;;;;7362521;19;20391;-68
2023/02/17 10:23:28;;;;;;;3.70;2.10;;;12.70;1.00;;;;;;7359604;19;20047;-68
2023/02/17 10:26:12;;;;;;;;;;;12.80;1.00;;;;;;7360816;19;20388;-68
2023/02/17 10:28:52;;;;;;;2.65;2.00;;;12.70;1.00;;;;;;7359697;19;20059;-69
2023/02/17 10:31:29;;;;;;;6.18;2.45;;;12.90;1.00;;;;;;7371450;19;20032;-68
2023/02/17 10:34:04;;;;;;;3.40;1.75;;;13.20;1.00;;;;;;7380316;19;20014;-69
2023/02/17 10:36:44;;;;;;;9.27;1.80;;;13.30;1.00;;;;;;7362897;19;20100;-67
2023/02/17 10:39:28;;;;;;;5.78;2.15;;;13.30;1.00;;;;;;7361746;19;20015;-68
2023/02/17 10:42:00;;;;;;;4.53;1.95;;;13.20;1.00;;;;;;7361558;19;20034;-67
2023/02/17 10:44:31;;;;;;;5.10;1.95;;;13.30;1.00;;;;;;7373698;19;20018;-68
2023/02/17 10:47:01;;;;;;;3.70;1.90;;;13.30;1.00;;;;;;7375272;19;20014;-69
2023/02/17 10:49:36;;;;;;;3.28;1.40;;;13.20;1.00;;;;;;7374387;19;20489;-68
2023/02/17 10:52:14;;;;;;;3.97;1.67;;;13.20;1.00;;;;;;7399773;19;20093;-68
2023/02/17 10:54:54;;;;;;;2.13;1.27;;;13.20;1.00;;;;;;7377396;19;20024;-69
2023/02/17 10:57:26;;;;;;;3.00;1.30;;;13.20;1.00;;;;;;7373573;19;20027;-68
2023/02/17 10:59:56;;;;;;;3.15;1.00;;;13.20;1.00;;;;;;7372332;19;20015;-68
2023/02/17 11:02:36;;;;;;;2.63;1.00;;;13.30;1.00;;;;;;7374950;19;20014;-69
2023/02/17 11:05:07;;;;;;;2.60;1.30;;;13.40;1.00;;;;;;7374213;19;20022;-69
2023/02/17 11:07:40;;;;;;;2.67;1.08;;;13.40;1.00;;;;;;7372373;19;20006;-68
2023/02/17 11:10:28;;;;;;;4.70;1.10;;;13.50;1.00;;;;;;7391660;19;20014;-68
2023/02/17 11:12:58;;;;;;;2.13;0.90;;;13.40;1.00;;;;;;7373129;19;20141;-65
2023/02/17 11:15:31;;;;;;;1.45;0.80;;;13.40;1.00;;;;;;7372677;19;20018;-68
2023/02/17 11:18:02;;;;;;;4.95;1.05;;;13.40;1.00;;;;;;7373199;19;20010;-70
2023/02/17 11:20:36;;;;;;;3.22;0.70;;;13.40;1.00;;;;;;7374562;19;20010;-69
2023/02/17 11:23:21;;;;;;;;;;;13.50;1.00;;;;;;7374187;19;20019;-69
2023/02/17 11:26:03;;;;;;;8.40;5.07;;;13.60;1.00;;;;;;7372707;19;19925;-67
2023/02/17 11:28:33;;;;;;;2.28;0.73;;;13.50;1.00;;;;;;7370418;19;20089;-67
2023/02/17 11:31:05;;;;;;;1.15;0.68;;;13.60;1.00;;;;;;7395447;19;20093;-67
2023/02/17 11:33:39;;;;;;;5.57;0.60;;;13.60;1.00;;;;;;7373071;19;20019;-68
2023/02/17 11:36:12;;;;;;;1.40;0.60;;;13.50;1.00;;;;;;7372210;19;20011;-68
2023/02/17 11:38:47;;;;;;;2.55;0.63;;;13.50;1.00;;;;;;7369996;19;20113;-66
2023/02/17 11:41:19;;;;;;;1.90;0.50;;;13.40;1.00;;;;;;7374203;19;20035;-65
2023/02/17 11:43:57;;;;;;;1.05;0.50;;;13.40;1.00;;;;;;7374139;19;20018;-68
2023/02/17 11:46:34;;;;;;;2.25;0.60;;;13.40;1.00;;;;;;7371280;19;20100;-69
2023/02/17 11:49:35;;;;;;;1.23;0.60;;;13.40;1.00;;;;;;7391207;19;20405;-68
2023/02/17 11:52:28;;;;;;;1.88;0.60;;;13.40;1.00;;;;;;7374948;19;20010;-68
2023/02/17 11:55:17;;;;;;;1.38;0.75;;;13.40;1.00;;;;;;7365703;19;20042;-67
2023/02/17 11:58:04;;;;;;;0.77;0.40;;;13.40;1.00;;;;;;7365130;19;20011;-68
2023/02/17 12:00:45;;;;;;;1.05;0.55;;;13.40;1.00;;;;;;7361796;19;20014;-68
2023/02/17 12:03:42;;;;;;;2.13;0.52;;;13.30;1.00;;;;;;7363627;19;20010;-69
2023/02/17 12:06:18;;;;;;;1.13;0.50;;;13.30;1.00;;;;;;7363326;19;20011;-68
2023/02/17 12:09:06;;;;;;;3.50;0.65;;;13.30;1.00;;;;;;7362904;19;20639;-68
2023/02/17 12:11:45;;;;;;;1.42;0.68;;;13.30;1.00;;;;;;7364705;19;20115;-68
2023/02/17 12:14:42;;;;;;;2.65;0.57;;;13.30;1.00;;;;;;7363669;19;20081;-68
2023/02/17 12:17:20;;;;;;;0.65;0.50;;;13.40;1.00;;;;;;7363658;19;20012;-68
2023/02/17 12:19:59;;;;;;;1.27;0.57;;;13.40;1.00;;;;;;7362334;19;20474;-68
2023/02/17 12:22:34;;;;;;;1.38;0.70;;;13.40;1.00;;;;;;7363073;19;20018;-66
2023/02/17 12:25:27;;;;;;;1.33;0.82;;;13.40;1.00;;;;;;7384126;19;20014;-67
2023/02/17 12:28:12;;;;;;;1.25;0.50;;;13.50;1.00;;;;;;7362888;19;23223;-68
2023/02/17 12:30:53;;;;;;;2.17;0.40;;;13.60;1.00;;;;;;7362390;19;20105;-67
2023/02/17 12:33:36;;;;;;;0.82;0.70;;;13.60;1.00;;;;;;7362881;19;20022;-67
2023/02/17 12:36:09;;;;;;;1.00;0.57;;;13.70;1.00;;;;;;7362829;19;20011;-68
2023/02/17 12:38:45;;;;;;;0.90;0.50;;;13.80;1.00;;;;;;7362493;19;20014;-69
2023/02/17 12:41:19;;;;;;;0.75;0.47;;;13.90;1.00;;;;;;7363019;19;20097;-68
2023/02/17 12:43:53;;;;;;;1.27;0.50;;;14.00;1.00;;;;;;7362248;19;20017;-68
2023/02/17 12:46:29;;;;;;;1.40;1.00;;;14.00;1.00;;;;;;7362143;19;20498;-70
2023/02/17 12:49:04;;;;;;;1.33;0.50;;;14.10;1.00;;;;;;7382583;19;20016;-68
2023/02/17 12:51:39;;;;;;;3.08;0.50;;;14.20;1.00;;;;;;7364474;19;20498;-67
2023/02/17 12:54:18;;;;;;;5.57;0.70;;;14.30;1.00;;;;;;7360102;19;20093;-66
2023/02/17 12:57:00;;;;;;;1.52;0.55;;;14.30;1.00;;;;;;7363235;19;20470;-68
2023/02/17 12:59:35;;;;;;;1.23;1.00;;;14.20;1.00;;;;;;7361880;19;20429;-67
2023/02/17 13:02:12;;;;;;;7.18;0.80;;;14.30;1.00;;;;;;7360274;19;20090;-67
2023/02/17 13:04:46;;;;;;;1.42;0.50;;;14.40;1.00;;;;;;7360933;19;20079;-67
2023/02/17 13:07:25;;;;;;;6.50;4.32;;;14.50;1.00;;;;;;7383804;19;20103;-68
2023/02/17 13:09:57;;;;;;;1.85;0.80;;;14.50;1.00;;;;;;7357567;19;20014;-67
2023/02/17 13:12:43;;;;;;;2.08;1.08;;;14.60;1.00;;;;;;7359641;19;20021;-67
2023/02/17 13:15:29;;;;;;;1.75;0.65;;;14.70;1.00;;;;;;7362563;19;20011;-68
2023/02/17 13:18:04;;;;;;;1.10;0.50;;;14.50;1.00;;;;;;7359811;19;20010;-68
2023/02/17 13:20:53;;;;;;;3.47;0.68;;;14.60;1.00;;;;;;7357346;19;20040;-68
2023/02/17 13:23:33;;;;;;;3.83;0.75;;;14.70;1.00;;;;;;7361809;19;20031;-68
2023/02/17 13:26:25;;;;;;;4.45;0.60;;;14.80;1.00;;;;;;7362048;19;20010;-68
2023/02/17 13:29:07;;;;;;;6.47;1.00;;;15.10;1.00;;;;;;7360866;19;20049;-69
2023/02/17 13:31:51;;;;;;;1.58;0.90;;;15.20;1.00;;;;;;7362498;19;20014;-67
2023/02/17 13:34:34;;;;;;;1.83;0.80;;;15.20;1.00;;;;;;7378231;19;20014;-68
2023/02/17 13:37:17;;;;;;;8.35;0.77;;;15.00;1.00;;;;;;7386965;19;20026;-67
2023/02/17 13:39:47;;;;;;;2.22;0.50;;;15.00;1.00;;;;;;7360928;19;20066;-67
2023/02/17 13:42:36;;;;;;;0.90;0.60;;;14.90;1.00;;;;;;7361265;19;20022;-68